sensor_id;sensor_type;location;lat;lon;timestamp;temperature;humidity
15355;DHT22;7777;52.254;9.618;2023-08-20T00:00:28;23.40;99.90
15355;DHT22;7777;52.254;9.618;2023-08-20T00:02:58;23.40;99.90
15355;DHT22;7777;52.254;9.618;2023-08-20T00:05:29;23.40;99.90
15355;DHT22;7777;52.254;9.618;2023-08-20T00:07:56;23.40;99.90
15355;DHT22;7777;52.254;9.618;2023-08-20T00:10:21;23.40;99.90
15355;DHT22;7777;52.254;9.618;2023-08-20T00:12:47;23.40;99.90
15355;DHT22;7777;52.254;9.618;2023-08-20T00:15:13;23.40;99.90
15355;DHT22;7777;52.254;9.618;2023-08-20T00:17:39;23.40;99.90
15355;DHT22;7777;52.254;9.618;2023-08-20T00:20:08;23.40;99.90
15355;DHT22;7777;52.254;9.618;2023-08-20T00:22:36;23.40;99.90
15355;DHT22;7777;52.254;9.618;2023-08-20T00:25:03;23.40;99.90
15355;DHT22;7777;52.254;9.618;2023-08-20T00:27:33;23.30;99.90
15355;DHT22;7777;52.254;9.618;2023-08-20T00:29:58;23.30;99.90
15355;DHT22;7777;52.254;9.618;2023-08-20T00:32:24;23.30;99.90
15355;DHT22;7777;52.254;9.618;2023-08-20T00:34:50;23.30;99.90
15355;DHT22;7777;52.254;9.618;2023-08-20T00:37:16;23.30;99.90
15355;DHT22;7777;52.254;9.618;2023-08-20T00:39:41;23.30;99.90
15355;DHT22;7777;52.254;9.618;2023-08-20T00:42:07;23.30;99.90
15355;DHT22;7777;52.254;9.618;2023-08-20T00:44:34;23.30;99.90
15355;DHT22;7777;52.254;9.618;2023-08-20T00:47:04;23.30;99.90
15355;DHT22;7777;52.254;9.618;2023-08-20T00:49:31;23.30;99.90
15355;DHT22;7777;52.254;9.618;2023-08-20T00:51:58;23.30;99.90
15355;DHT22;7777;52.254;9.618;2023-08-20T00:54:24;23.30;99.90
15355;DHT22;7777;52.254;9.618;2023-08-20T00:56:51;23.30;99.90
15355;DHT22;7777;52.254;9.618;2023-08-20T00:59:17;23.20;99.90
15355;DHT22;7777;52.254;9.618;2023-08-20T01:01:43;23.20;99.90
15355;DHT22;7777;52.254;9.618;2023-08-20T01:04:09;23.20;99.90
15355;DHT22;7777;52.254;9.618;2023-08-20T01:09:50;23.10;99.90
15355;DHT22;7777;52.254;9.618;2023-08-20T01:12:29;23.10;99.90
15355;DHT22;7777;52.254;9.618;2023-08-20T01:14:55;23.00;99.90
15355;DHT22;7777;52.254;9.618;2023-08-20T01:17:21;23.00;99.90
15355;DHT22;7777;52.254;9.618;2023-08-20T01:19:47;22.90;99.90
15355;DHT22;7777;52.254;9.618;2023-08-20T01:30:43;22.80;99.90
15355;DHT22;7777;52.254;9.618;2023-08-20T01:33:10;22.70;99.90
15355;DHT22;7777;52.254;9.618;2023-08-20T01:35:38;22.70;99.90
15355;DHT22;7777;52.254;9.618;2023-08-20T01:38:04;22.60;99.90
15355;DHT22;7777;52.254;9.618;2023-08-20T01:40:30;22.60;99.90
15355;DHT22;7777;52.254;9.618;2023-08-20T01:42:56;22.60;99.90
15355;DHT22;7777;52.254;9.618;2023-08-20T01:45:23;22.50;99.90
15355;DHT22;7777;52.254;9.618;2023-08-20T01:47:49;22.50;99.90
15355;DHT22;7777;52.254;9.618;2023-08-20T01:50:15;22.50;99.90
15355;DHT22;7777;52.254;9.618;2023-08-20T01:52:40;22.40;99.90
15355;DHT22;7777;52.254;9.618;2023-08-20T01:55:06;22.40;99.90
15355;DHT22;7777;52.254;9.618;2023-08-20T01:57:33;22.40;99.90
15355;DHT22;7777;52.254;9.618;2023-08-20T01:59:58;22.30;99.90
15355;DHT22;7777;52.254;9.618;2023-08-20T02:02:24;22.30;99.90
15355;DHT22;7777;52.254;9.618;2023-08-20T02:04:50;22.20;99.90
15355;DHT22;7777;52.254;9.618;2023-08-20T02:07:16;22.20;99.90
15355;DHT22;7777;52.254;9.618;2023-08-20T02:09:42;22.20;99.90
15355;DHT22;7777;52.254;9.618;2023-08-20T02:12:08;22.10;99.90
15355;DHT22;7777;52.254;9.618;2023-08-20T02:14:34;22.10;99.90
15355;DHT22;7777;52.254;9.618;2023-08-20T02:17:03;22.10;99.90
15355;DHT22;7777;52.254;9.618;2023-08-20T02:19:29;22.00;99.90
15355;DHT22;7777;52.254;9.618;2023-08-20T02:21:55;21.90;99.90
15355;DHT22;7777;52.254;9.618;2023-08-20T02:24:21;21.90;99.90
15355;DHT22;7777;52.254;9.618;2023-08-20T02:26:47;21.80;99.90
15355;DHT22;7777;52.254;9.618;2023-08-20T02:29:12;21.80;99.90
15355;DHT22;7777;52.254;9.618;2023-08-20T02:31:38;21.80;99.90
15355;DHT22;7777;52.254;9.618;2023-08-20T02:34:04;21.70;99.90
15355;DHT22;7777;52.254;9.618;2023-08-20T02:36:30;21.70;99.90
15355;DHT22;7777;52.254;9.618;2023-08-20T02:38:56;21.60;99.90
15355;DHT22;7777;52.254;9.618;2023-08-20T02:41:22;21.60;99.90
15355;DHT22;7777;52.254;9.618;2023-08-20T02:43:48;21.50;99.90
15355;DHT22;7777;52.254;9.618;2023-08-20T02:46:14;21.40;99.90
15355;DHT22;7777;52.254;9.618;2023-08-20T02:48:40;21.40;99.90
15355;DHT22;7777;52.254;9.618;2023-08-20T02:51:06;21.40;99.90
15355;DHT22;7777;52.254;9.618;2023-08-20T02:53:32;21.30;99.90
15355;DHT22;7777;52.254;9.618;2023-08-20T02:55:58;21.30;99.90
15355;DHT22;7777;52.254;9.618;2023-08-20T02:58:24;21.30;99.90
15355;DHT22;7777;52.254;9.618;2023-08-20T03:00:50;21.20;99.90
15355;DHT22;7777;52.254;9.618;2023-08-20T03:03:16;21.20;99.90
15355;DHT22;7777;52.254;9.618;2023-08-20T03:05:42;21.10;99.90
15355;DHT22;7777;52.254;9.618;2023-08-20T03:08:08;21.10;99.90
15355;DHT22;7777;52.254;9.618;2023-08-20T03:10:34;21.10;99.90
15355;DHT22;7777;52.254;9.618;2023-08-20T03:13:01;21.00;99.90
15355;DHT22;7777;52.254;9.618;2023-08-20T03:15:27;21.00;99.90
15355;DHT22;7777;52.254;9.618;2023-08-20T03:17:53;20.90;99.90
15355;DHT22;7777;52.254;9.618;2023-08-20T03:20:19;20.90;99.90
15355;DHT22;7777;52.254;9.618;2023-08-20T03:22:45;20.80;99.90
15355;DHT22;7777;52.254;9.618;2023-08-20T03:25:11;20.80;99.90
15355;DHT22;7777;52.254;9.618;2023-08-20T03:27:37;20.80;99.90
15355;DHT22;7777;52.254;9.618;2023-08-20T03:30:03;20.80;99.90
15355;DHT22;7777;52.254;9.618;2023-08-20T03:32:30;20.70;99.90
15355;DHT22;7777;52.254;9.618;2023-08-20T03:34:56;20.70;99.90
15355;DHT22;7777;52.254;9.618;2023-08-20T03:37:25;20.70;99.90
15355;DHT22;7777;52.254;9.618;2023-08-20T03:39:51;20.60;99.90
15355;DHT22;7777;52.254;9.618;2023-08-20T03:42:17;20.60;99.90
15355;DHT22;7777;52.254;9.618;2023-08-20T03:44:43;20.60;99.90
15355;DHT22;7777;52.254;9.618;2023-08-20T03:47:09;20.50;99.90
15355;DHT22;7777;52.254;9.618;2023-08-20T03:49:35;20.50;99.90
15355;DHT22;7777;52.254;9.618;2023-08-20T03:52:01;20.50;99.90
15355;DHT22;7777;52.254;9.618;2023-08-20T03:54:30;20.50;99.90
15355;DHT22;7777;52.254;9.618;2023-08-20T03:56:56;20.40;99.90
15355;DHT22;7777;52.254;9.618;2023-08-20T03:59:22;20.40;99.90
15355;DHT22;7777;52.254;9.618;2023-08-20T04:01:48;20.40;99.90
15355;DHT22;7777;52.254;9.618;2023-08-20T04:04:14;20.40;99.90
15355;DHT22;7777;52.254;9.618;2023-08-20T04:06:40;20.40;99.90
15355;DHT22;7777;52.254;9.618;2023-08-20T04:09:06;20.40;99.90
15355;DHT22;7777;52.254;9.618;2023-08-20T04:11:32;20.30;99.90
15355;DHT22;7777;52.254;9.618;2023-08-20T04:13:58;20.30;99.90
15355;DHT22;7777;52.254;9.618;2023-08-20T04:16:24;20.30;99.90
15355;DHT22;7777;52.254;9.618;2023-08-20T04:18:49;20.30;99.90
15355;DHT22;7777;52.254;9.618;2023-08-20T04:21:15;20.30;99.90
15355;DHT22;7777;52.254;9.618;2023-08-20T04:23:41;20.30;99.90
15355;DHT22;7777;52.254;9.618;2023-08-20T04:26:07;20.30;99.90
15355;DHT22;7777;52.254;9.618;2023-08-20T04:28:33;20.30;99.90
15355;DHT22;7777;52.254;9.618;2023-08-20T04:30:59;20.30;99.90
15355;DHT22;7777;52.254;9.618;2023-08-20T04:33:26;20.30;99.90
15355;DHT22;7777;52.254;9.618;2023-08-20T04:35:52;20.30;99.90
15355;DHT22;7777;52.254;9.618;2023-08-20T04:38:18;20.30;99.90
15355;DHT22;7777;52.254;9.618;2023-08-20T04:40:48;20.30;99.90
15355;DHT22;7777;52.254;9.618;2023-08-20T04:43:14;20.30;99.90
15355;DHT22;7777;52.254;9.618;2023-08-20T04:45:41;20.30;99.90
15355;DHT22;7777;52.254;9.618;2023-08-20T04:48:07;20.30;99.90
15355;DHT22;7777;52.254;9.618;2023-08-20T04:50:33;20.30;99.90
15355;DHT22;7777;52.254;9.618;2023-08-20T04:52:59;20.30;99.90
15355;DHT22;7777;52.254;9.618;2023-08-20T04:55:26;20.20;99.90
15355;DHT22;7777;52.254;9.618;2023-08-20T04:57:53;20.30;99.90
15355;DHT22;7777;52.254;9.618;2023-08-20T05:00:19;20.30;99.90
15355;DHT22;7777;52.254;9.618;2023-08-20T05:02:45;20.30;99.90
15355;DHT22;7777;52.254;9.618;2023-08-20T05:05:11;20.30;99.90
15355;DHT22;7777;52.254;9.618;2023-08-20T05:07:37;20.30;99.90
15355;DHT22;7777;52.254;9.618;2023-08-20T05:10:03;20.30;99.90
15355;DHT22;7777;52.254;9.618;2023-08-20T05:12:29;20.30;99.90
15355;DHT22;7777;52.254;9.618;2023-08-20T05:14:54;20.30;99.90
15355;DHT22;7777;52.254;9.618;2023-08-20T05:17:20;20.40;99.90
15355;DHT22;7777;52.254;9.618;2023-08-20T05:19:46;20.40;99.90
15355;DHT22;7777;52.254;9.618;2023-08-20T05:22:12;20.40;99.90
15355;DHT22;7777;52.254;9.618;2023-08-20T05:24:38;20.40;99.90
15355;DHT22;7777;52.254;9.618;2023-08-20T05:27:08;20.40;99.90
15355;DHT22;7777;52.254;9.618;2023-08-20T05:29:36;20.40;99.90
15355;DHT22;7777;52.254;9.618;2023-08-20T05:32:02;20.40;99.90
15355;DHT22;7777;52.254;9.618;2023-08-20T05:34:28;20.50;99.90
15355;DHT22;7777;52.254;9.618;2023-08-20T05:36:53;20.50;99.90
15355;DHT22;7777;52.254;9.618;2023-08-20T05:39:19;20.50;99.90
15355;DHT22;7777;52.254;9.618;2023-08-20T05:41:45;20.50;99.90
15355;DHT22;7777;52.254;9.618;2023-08-20T05:44:11;20.50;99.90
15355;DHT22;7777;52.254;9.618;2023-08-20T05:46:36;20.50;99.90
15355;DHT22;7777;52.254;9.618;2023-08-20T05:49:02;20.60;99.90
15355;DHT22;7777;52.254;9.618;2023-08-20T05:51:28;20.60;99.90
15355;DHT22;7777;52.254;9.618;2023-08-20T05:53:54;20.60;99.90
15355;DHT22;7777;52.254;9.618;2023-08-20T05:56:20;20.60;99.90
15355;DHT22;7777;52.254;9.618;2023-08-20T05:58:45;20.60;99.90
15355;DHT22;7777;52.254;9.618;2023-08-20T06:01:11;20.60;99.90
15355;DHT22;7777;52.254;9.618;2023-08-20T06:03:37;20.60;99.90
15355;DHT22;7777;52.254;9.618;2023-08-20T06:06:02;20.60;99.90
15355;DHT22;7777;52.254;9.618;2023-08-20T06:08:28;20.60;99.90
15355;DHT22;7777;52.254;9.618;2023-08-20T06:10:54;20.70;99.90
15355;DHT22;7777;52.254;9.618;2023-08-20T06:13:20;20.70;99.90
15355;DHT22;7777;52.254;9.618;2023-08-20T06:15:45;20.70;99.90
15355;DHT22;7777;52.254;9.618;2023-08-20T06:18:11;20.70;99.90
15355;DHT22;7777;52.254;9.618;2023-08-20T06:20:37;20.70;99.90
15355;DHT22;7777;52.254;9.618;2023-08-20T06:23:03;20.70;99.90
15355;DHT22;7777;52.254;9.618;2023-08-20T06:25:29;20.70;99.90
15355;DHT22;7777;52.254;9.618;2023-08-20T06:27:55;20.80;99.90
15355;DHT22;7777;52.254;9.618;2023-08-20T06:30:21;20.80;99.90
15355;DHT22;7777;52.254;9.618;2023-08-20T06:32:46;20.80;99.90
15355;DHT22;7777;52.254;9.618;2023-08-20T06:35:12;20.80;99.90
15355;DHT22;7777;52.254;9.618;2023-08-20T06:37:39;20.90;99.90
15355;DHT22;7777;52.254;9.618;2023-08-20T06:40:06;20.90;99.90
15355;DHT22;7777;52.254;9.618;2023-08-20T06:42:32;20.90;99.90
15355;DHT22;7777;52.254;9.618;2023-08-20T06:44:58;20.90;99.90
15355;DHT22;7777;52.254;9.618;2023-08-20T06:47:24;21.00;99.90
15355;DHT22;7777;52.254;9.618;2023-08-20T06:49:50;21.00;99.90
15355;DHT22;7777;52.254;9.618;2023-08-20T06:52:16;21.00;99.90
15355;DHT22;7777;52.254;9.618;2023-08-20T06:54:43;21.10;99.90
15355;DHT22;7777;52.254;9.618;2023-08-20T06:57:09;21.10;99.90
15355;DHT22;7777;52.254;9.618;2023-08-20T06:59:44;21.10;99.90
15355;DHT22;7777;52.254;9.618;2023-08-20T07:02:10;21.10;99.90
15355;DHT22;7777;52.254;9.618;2023-08-20T07:04:36;21.20;99.90
15355;DHT22;7777;52.254;9.618;2023-08-20T07:07:02;21.20;99.90
15355;DHT22;7777;52.254;9.618;2023-08-20T07:09:30;21.20;99.90
15355;DHT22;7777;52.254;9.618;2023-08-20T07:11:56;21.30;99.90
15355;DHT22;7777;52.254;9.618;2023-08-20T07:14:22;21.30;99.90
15355;DHT22;7777;52.254;9.618;2023-08-20T07:16:47;21.30;99.90
15355;DHT22;7777;52.254;9.618;2023-08-20T07:19:13;21.40;99.90
15355;DHT22;7777;52.254;9.618;2023-08-20T07:21:39;21.40;99.90
15355;DHT22;7777;52.254;9.618;2023-08-20T07:24:05;21.40;99.90
15355;DHT22;7777;52.254;9.618;2023-08-20T07:26:31;21.50;99.90
15355;DHT22;7777;52.254;9.618;2023-08-20T07:28:56;21.50;99.90
15355;DHT22;7777;52.254;9.618;2023-08-20T07:31:27;21.60;99.90
15355;DHT22;7777;52.254;9.618;2023-08-20T07:33:55;21.60;99.90
15355;DHT22;7777;52.254;9.618;2023-08-20T07:36:22;21.70;99.90
15355;DHT22;7777;52.254;9.618;2023-08-20T07:38:49;21.70;99.90
15355;DHT22;7777;52.254;9.618;2023-08-20T07:41:15;21.80;99.90
15355;DHT22;7777;52.254;9.618;2023-08-20T07:43:41;21.80;99.90
15355;DHT22;7777;52.254;9.618;2023-08-20T07:46:08;21.90;99.90
15355;DHT22;7777;52.254;9.618;2023-08-20T07:48:37;21.90;99.90
15355;DHT22;7777;52.254;9.618;2023-08-20T07:51:03;22.00;99.90
15355;DHT22;7777;52.254;9.618;2023-08-20T07:53:30;22.10;99.90
15355;DHT22;7777;52.254;9.618;2023-08-20T07:55:56;22.10;99.90
15355;DHT22;7777;52.254;9.618;2023-08-20T07:58:22;22.20;99.90
15355;DHT22;7777;52.254;9.618;2023-08-20T08:00:47;22.20;99.90
15355;DHT22;7777;52.254;9.618;2023-08-20T08:03:13;22.30;99.90
15355;DHT22;7777;52.254;9.618;2023-08-20T08:05:49;22.30;99.90
15355;DHT22;7777;52.254;9.618;2023-08-20T08:08:16;22.40;99.90
15355;DHT22;7777;52.254;9.618;2023-08-20T08:10:43;22.40;99.90
15355;DHT22;7777;52.254;9.618;2023-08-20T08:13:14;22.50;99.90
15355;DHT22;7777;52.254;9.618;2023-08-20T08:15:41;22.60;99.90
15355;DHT22;7777;52.254;9.618;2023-08-20T08:18:07;22.60;99.90
15355;DHT22;7777;52.254;9.618;2023-08-20T08:20:34;22.70;99.90
15355;DHT22;7777;52.254;9.618;2023-08-20T08:23:00;22.70;99.90
15355;DHT22;7777;52.254;9.618;2023-08-20T08:25:26;22.80;99.90
15355;DHT22;7777;52.254;9.618;2023-08-20T08:27:52;22.80;99.90
15355;DHT22;7777;52.254;9.618;2023-08-20T08:30:18;22.90;99.90
15355;DHT22;7777;52.254;9.618;2023-08-20T08:32:43;22.90;99.90
15355;DHT22;7777;52.254;9.618;2023-08-20T08:35:09;23.00;99.90
15355;DHT22;7777;52.254;9.618;2023-08-20T08:37:35;23.00;99.90
15355;DHT22;7777;52.254;9.618;2023-08-20T08:40:02;23.10;99.90
15355;DHT22;7777;52.254;9.618;2023-08-20T08:42:31;23.10;99.90
15355;DHT22;7777;52.254;9.618;2023-08-20T08:45:02;23.20;99.90
15355;DHT22;7777;52.254;9.618;2023-08-20T08:47:29;23.20;99.90
15355;DHT22;7777;52.254;9.618;2023-08-20T08:49:56;23.20;99.90
15355;DHT22;7777;52.254;9.618;2023-08-20T08:52:25;23.30;99.90
15355;DHT22;7777;52.254;9.618;2023-08-20T08:54:52;23.40;99.90
15355;DHT22;7777;52.254;9.618;2023-08-20T08:57:18;23.40;99.90
15355;DHT22;7777;52.254;9.618;2023-08-20T08:59:44;23.40;99.90
15355;DHT22;7777;52.254;9.618;2023-08-20T09:02:11;23.50;99.90
15355;DHT22;7777;52.254;9.618;2023-08-20T09:04:41;23.50;99.90
15355;DHT22;7777;52.254;9.618;2023-08-20T09:07:12;23.60;99.90
15355;DHT22;7777;52.254;9.618;2023-08-20T09:09:42;23.60;99.90
15355;DHT22;7777;52.254;9.618;2023-08-20T09:12:15;23.70;99.90
15355;DHT22;7777;52.254;9.618;2023-08-20T09:14:49;23.70;99.90
15355;DHT22;7777;52.254;9.618;2023-08-20T09:17:17;23.80;99.90
15355;DHT22;7777;52.254;9.618;2023-08-20T09:19:44;23.80;99.90
15355;DHT22;7777;52.254;9.618;2023-08-20T09:22:12;23.90;99.90
15355;DHT22;7777;52.254;9.618;2023-08-20T09:24:46;23.90;99.90
15355;DHT22;7777;52.254;9.618;2023-08-20T09:27:13;24.00;99.90
15355;DHT22;7777;52.254;9.618;2023-08-20T09:29:55;24.00;99.90
15355;DHT22;7777;52.254;9.618;2023-08-20T09:32:26;24.10;99.90
15355;DHT22;7777;52.254;9.618;2023-08-20T09:34:54;24.20;99.90
15355;DHT22;7777;52.254;9.618;2023-08-20T09:37:22;24.20;99.90
15355;DHT22;7777;52.254;9.618;2023-08-20T09:39:50;24.30;99.90
15355;DHT22;7777;52.254;9.618;2023-08-20T09:42:16;24.30;99.90
15355;DHT22;7777;52.254;9.618;2023-08-20T09:44:46;24.40;99.90
15355;DHT22;7777;52.254;9.618;2023-08-20T09:47:14;24.50;99.90
15355;DHT22;7777;52.254;9.618;2023-08-20T09:49:42;24.60;99.90
15355;DHT22;7777;52.254;9.618;2023-08-20T09:52:16;24.70;99.90
15355;DHT22;7777;52.254;9.618;2023-08-20T09:54:50;24.70;99.90
15355;DHT22;7777;52.254;9.618;2023-08-20T09:57:43;24.80;99.90
15355;DHT22;7777;52.254;9.618;2023-08-20T10:00:10;24.90;99.90
15355;DHT22;7777;52.254;9.618;2023-08-20T10:02:38;24.90;99.90
15355;DHT22;7777;52.254;9.618;2023-08-20T10:05:05;25.00;99.90
15355;DHT22;7777;52.254;9.618;2023-08-20T10:07:33;25.10;99.90
15355;DHT22;7777;52.254;9.618;2023-08-20T10:10:05;25.20;99.90
15355;DHT22;7777;52.254;9.618;2023-08-20T10:12:32;25.30;99.90
15355;DHT22;7777;52.254;9.618;2023-08-20T10:14:59;25.30;99.90
15355;DHT22;7777;52.254;9.618;2023-08-20T10:17:29;25.40;99.90
15355;DHT22;7777;52.254;9.618;2023-08-20T10:19:58;25.50;99.90
15355;DHT22;7777;52.254;9.618;2023-08-20T10:22:40;25.60;99.90
15355;DHT22;7777;52.254;9.618;2023-08-20T10:25:08;25.80;99.90
15355;DHT22;7777;52.254;9.618;2023-08-20T10:27:36;25.80;99.90
15355;DHT22;7777;52.254;9.618;2023-08-20T10:30:10;25.90;99.90
15355;DHT22;7777;52.254;9.618;2023-08-20T10:32:48;26.00;99.90
15355;DHT22;7777;52.254;9.618;2023-08-20T10:38:07;26.20;99.90
15355;DHT22;7777;52.254;9.618;2023-08-20T10:40:57;26.40;99.90
15355;DHT22;7777;52.254;9.618;2023-08-20T10:46:21;26.50;99.90
15355;DHT22;7777;52.254;9.618;2023-08-20T10:51:19;26.70;99.90
15355;DHT22;7777;52.254;9.618;2023-08-20T10:56:56;26.80;99.90
15355;DHT22;7777;52.254;9.618;2023-08-20T10:59:27;26.90;99.90
15355;DHT22;7777;52.254;9.618;2023-08-20T11:01:58;27.00;99.90
15355;DHT22;7777;52.254;9.618;2023-08-20T11:04:28;27.10;99.90
15355;DHT22;7777;52.254;9.618;2023-08-20T11:06:58;27.20;99.90
15355;DHT22;7777;52.254;9.618;2023-08-20T11:09:26;27.40;99.90
15355;DHT22;7777;52.254;9.618;2023-08-20T11:11:53;27.50;99.90
15355;DHT22;7777;52.254;9.618;2023-08-20T11:14:20;27.60;99.90
15355;DHT22;7777;52.254;9.618;2023-08-20T11:16:46;27.70;99.90
15355;DHT22;7777;52.254;9.618;2023-08-20T11:19:14;27.80;99.90
15355;DHT22;7777;52.254;9.618;2023-08-20T11:21:42;27.90;99.90
15355;DHT22;7777;52.254;9.618;2023-08-20T11:24:08;28.00;99.90
15355;DHT22;7777;52.254;9.618;2023-08-20T11:26:36;28.10;99.90
15355;DHT22;7777;52.254;9.618;2023-08-20T11:29:12;28.10;99.90
15355;DHT22;7777;52.254;9.618;2023-08-20T11:31:40;28.20;99.90
15355;DHT22;7777;52.254;9.618;2023-08-20T11:34:06;28.30;99.90
15355;DHT22;7777;52.254;9.618;2023-08-20T11:36:33;28.40;99.90
15355;DHT22;7777;52.254;9.618;2023-08-20T11:38:59;28.40;99.90
15355;DHT22;7777;52.254;9.618;2023-08-20T11:41:25;28.50;99.90
15355;DHT22;7777;52.254;9.618;2023-08-20T11:43:52;28.50;99.90
15355;DHT22;7777;52.254;9.618;2023-08-20T11:46:21;28.60;99.90
15355;DHT22;7777;52.254;9.618;2023-08-20T11:49:04;28.60;99.90
15355;DHT22;7777;52.254;9.618;2023-08-20T11:51:49;28.70;99.90
15355;DHT22;7777;52.254;9.618;2023-08-20T11:54:16;28.70;99.90
15355;DHT22;7777;52.254;9.618;2023-08-20T11:56:52;28.70;99.90
15355;DHT22;7777;52.254;9.618;2023-08-20T11:59:28;28.60;99.90
15355;DHT22;7777;52.254;9.618;2023-08-20T12:01:58;28.50;99.90
15355;DHT22;7777;52.254;9.618;2023-08-20T12:04:27;28.50;99.90
15355;DHT22;7777;52.254;9.618;2023-08-20T12:09:34;28.40;99.90
15355;DHT22;7777;52.254;9.618;2023-08-20T12:12:01;28.30;99.90
15355;DHT22;7777;52.254;9.618;2023-08-20T12:14:27;28.30;99.90
15355;DHT22;7777;52.254;9.618;2023-08-20T12:16:54;28.20;99.90
15355;DHT22;7777;52.254;9.618;2023-08-20T12:19:20;28.20;99.90
15355;DHT22;7777;52.254;9.618;2023-08-20T12:21:46;28.10;99.90
15355;DHT22;7777;52.254;9.618;2023-08-20T12:24:12;28.10;99.90
15355;DHT22;7777;52.254;9.618;2023-08-20T12:26:41;28.00;99.90
15355;DHT22;7777;52.254;9.618;2023-08-20T12:29:08;27.90;99.90
15355;DHT22;7777;52.254;9.618;2023-08-20T12:31:34;27.90;99.90
15355;DHT22;7777;52.254;9.618;2023-08-20T12:34:01;27.80;99.90
15355;DHT22;7777;52.254;9.618;2023-08-20T12:36:28;27.80;99.90
15355;DHT22;7777;52.254;9.618;2023-08-20T12:38:54;27.80;99.90
15355;DHT22;7777;52.254;9.618;2023-08-20T12:41:20;27.70;99.90
15355;DHT22;7777;52.254;9.618;2023-08-20T12:43:47;27.70;99.90
15355;DHT22;7777;52.254;9.618;2023-08-20T12:46:12;27.70;99.90
15355;DHT22;7777;52.254;9.618;2023-08-20T12:48:39;27.70;99.90
15355;DHT22;7777;52.254;9.618;2023-08-20T12:51:05;27.80;99.90
15355;DHT22;7777;52.254;9.618;2023-08-20T12:53:32;27.80;99.90
15355;DHT22;7777;52.254;9.618;2023-08-20T12:55:57;27.90;99.90
15355;DHT22;7777;52.254;9.618;2023-08-20T12:58:23;27.90;99.90
15355;DHT22;7777;52.254;9.618;2023-08-20T13:00:50;28.00;99.90
15355;DHT22;7777;52.254;9.618;2023-08-20T13:03:17;28.00;99.90
15355;DHT22;7777;52.254;9.618;2023-08-20T13:05:44;28.10;99.90
15355;DHT22;7777;52.254;9.618;2023-08-20T13:08:10;28.10;99.90
15355;DHT22;7777;52.254;9.618;2023-08-20T13:10:42;28.20;99.90
15355;DHT22;7777;52.254;9.618;2023-08-20T13:13:10;28.20;99.90
15355;DHT22;7777;52.254;9.618;2023-08-20T13:15:38;28.30;99.90
15355;DHT22;7777;52.254;9.618;2023-08-20T13:18:04;28.40;99.90
15355;DHT22;7777;52.254;9.618;2023-08-20T13:20:33;28.40;99.90
15355;DHT22;7777;52.254;9.618;2023-08-20T13:22:58;28.50;99.90
15355;DHT22;7777;52.254;9.618;2023-08-20T13:25:24;28.60;99.90
15355;DHT22;7777;52.254;9.618;2023-08-20T13:27:50;28.70;99.90
15355;DHT22;7777;52.254;9.618;2023-08-20T13:30:16;28.70;99.90
15355;DHT22;7777;52.254;9.618;2023-08-20T13:32:43;28.80;99.90
15355;DHT22;7777;52.254;9.618;2023-08-20T13:35:08;28.90;99.90
15355;DHT22;7777;52.254;9.618;2023-08-20T13:37:34;28.90;99.90
15355;DHT22;7777;52.254;9.618;2023-08-20T13:40:00;28.90;99.90
15355;DHT22;7777;52.254;9.618;2023-08-20T13:42:26;29.00;99.90
15355;DHT22;7777;52.254;9.618;2023-08-20T13:44:52;29.00;99.90
15355;DHT22;7777;52.254;9.618;2023-08-20T13:47:18;29.00;99.90
15355;DHT22;7777;52.254;9.618;2023-08-20T13:49:44;29.00;99.90
15355;DHT22;7777;52.254;9.618;2023-08-20T13:52:10;29.00;99.90
15355;DHT22;7777;52.254;9.618;2023-08-20T13:54:36;29.00;99.90
15355;DHT22;7777;52.254;9.618;2023-08-20T13:57:03;29.10;99.90
15355;DHT22;7777;52.254;9.618;2023-08-20T13:59:29;29.10;99.90
15355;DHT22;7777;52.254;9.618;2023-08-20T14:01:56;29.00;99.90
15355;DHT22;7777;52.254;9.618;2023-08-20T14:04:22;29.00;99.90
15355;DHT22;7777;52.254;9.618;2023-08-20T14:06:47;29.00;99.90
15355;DHT22;7777;52.254;9.618;2023-08-20T14:09:13;28.90;99.90
15355;DHT22;7777;52.254;9.618;2023-08-20T14:11:39;28.80;99.90
15355;DHT22;7777;52.254;9.618;2023-08-20T14:14:05;28.70;99.90
15355;DHT22;7777;52.254;9.618;2023-08-20T14:16:31;28.70;99.90
15355;DHT22;7777;52.254;9.618;2023-08-20T14:18:57;28.70;99.90
15355;DHT22;7777;52.254;9.618;2023-08-20T14:21:23;28.60;99.90
15355;DHT22;7777;52.254;9.618;2023-08-20T14:23:48;28.60;99.90
15355;DHT22;7777;52.254;9.618;2023-08-20T14:26:14;28.50;99.90
15355;DHT22;7777;52.254;9.618;2023-08-20T14:28:41;28.50;99.90
15355;DHT22;7777;52.254;9.618;2023-08-20T14:31:11;28.50;99.90
15355;DHT22;7777;52.254;9.618;2023-08-20T14:33:37;28.40;99.90
15355;DHT22;7777;52.254;9.618;2023-08-20T14:36:03;28.40;99.90
15355;DHT22;7777;52.254;9.618;2023-08-20T14:38:29;28.40;99.90
15355;DHT22;7777;52.254;9.618;2023-08-20T14:41:00;28.40;99.90
15355;DHT22;7777;52.254;9.618;2023-08-20T14:43:26;28.40;99.90
15355;DHT22;7777;52.254;9.618;2023-08-20T14:45:53;28.40;99.90
15355;DHT22;7777;52.254;9.618;2023-08-20T14:48:20;28.40;99.90
15355;DHT22;7777;52.254;9.618;2023-08-20T14:50:46;28.40;99.90
15355;DHT22;7777;52.254;9.618;2023-08-20T14:53:11;28.30;99.90
15355;DHT22;7777;52.254;9.618;2023-08-20T14:55:37;28.40;99.90
15355;DHT22;7777;52.254;9.618;2023-08-20T14:58:03;28.30;99.90
15355;DHT22;7777;52.254;9.618;2023-08-20T15:00:34;28.30;99.90
15355;DHT22;7777;52.254;9.618;2023-08-20T15:03:01;28.30;99.90
15355;DHT22;7777;52.254;9.618;2023-08-20T15:05:28;28.20;99.90
15355;DHT22;7777;52.254;9.618;2023-08-20T15:07:54;28.30;99.90
15355;DHT22;7777;52.254;9.618;2023-08-20T15:10:20;28.20;99.90
15355;DHT22;7777;52.254;9.618;2023-08-20T15:12:46;28.20;99.90
15355;DHT22;7777;52.254;9.618;2023-08-20T15:15:12;28.20;99.90
15355;DHT22;7777;52.254;9.618;2023-08-20T15:17:38;28.20;99.90
15355;DHT22;7777;52.254;9.618;2023-08-20T15:20:04;28.20;99.90
15355;DHT22;7777;52.254;9.618;2023-08-20T15:22:32;28.10;99.90
15355;DHT22;7777;52.254;9.618;2023-08-20T15:24:58;28.20;99.90
15355;DHT22;7777;52.254;9.618;2023-08-20T15:27:24;28.10;99.90
15355;DHT22;7777;52.254;9.618;2023-08-20T15:29:51;28.10;99.90
15355;DHT22;7777;52.254;9.618;2023-08-20T15:32:17;28.10;99.90
15355;DHT22;7777;52.254;9.618;2023-08-20T15:34:43;28.10;99.90
15355;DHT22;7777;52.254;9.618;2023-08-20T15:37:09;28.10;99.90
15355;DHT22;7777;52.254;9.618;2023-08-20T15:39:35;28.00;99.90
15355;DHT22;7777;52.254;9.618;2023-08-20T15:42:01;28.00;99.90
15355;DHT22;7777;52.254;9.618;2023-08-20T15:44:27;28.00;99.90
15355;DHT22;7777;52.254;9.618;2023-08-20T15:46:53;28.00;99.90
15355;DHT22;7777;52.254;9.618;2023-08-20T15:49:19;27.90;99.90
15355;DHT22;7777;52.254;9.618;2023-08-20T15:51:45;28.00;99.90
15355;DHT22;7777;52.254;9.618;2023-08-20T15:54:12;27.90;99.90
15355;DHT22;7777;52.254;9.618;2023-08-20T15:56:41;27.90;99.90
15355;DHT22;7777;52.254;9.618;2023-08-20T15:59:13;27.90;99.90
15355;DHT22;7777;52.254;9.618;2023-08-20T16:01:39;27.80;99.90
15355;DHT22;7777;52.254;9.618;2023-08-20T16:04:05;27.80;99.90
15355;DHT22;7777;52.254;9.618;2023-08-20T16:06:30;27.80;99.90
15355;DHT22;7777;52.254;9.618;2023-08-20T16:08:56;27.80;99.90